createdAt,value
2023-11-11T00:00:02.804Z,5.60
2023-11-11T00:02:40.729Z,5.60
2023-11-11T00:05:19.096Z,5.50
2023-11-11T00:07:53.714Z,5.40
2023-11-11T00:10:31.616Z,5.40
2023-11-11T00:13:07.956Z,5.40
2023-11-11T00:15:45.140Z,5.30
2023-11-11T00:18:23.464Z,5.30
2023-11-11T00:21:03.698Z,5.30
2023-11-11T00:23:39.905Z,5.20
2023-11-11T00:26:21.389Z,5.20
2023-11-11T00:29:00.236Z,5.10
2023-11-11T00:31:41.284Z,5.10
2023-11-11T00:34:16.855Z,5.00
2023-11-11T00:36:57.456Z,4.90
2023-11-11T00:39:36.632Z,4.90
2023-11-11T00:42:15.781Z,4.80
2023-11-11T00:44:51.426Z,4.80
2023-11-11T00:47:30.694Z,4.70
2023-11-11T00:50:10.952Z,4.70
2023-11-11T00:52:51.517Z,4.70
2023-11-11T00:55:29.349Z,4.70
2023-11-11T00:58:03.743Z,4.60
2023-11-11T01:00:54.436Z,4.60
2023-11-11T01:03:34.253Z,4.60
2023-11-11T01:06:12.388Z,4.60
2023-11-11T01:08:54.693Z,4.60
2023-11-11T01:11:30.426Z,4.50
2023-11-11T01:14:06.614Z,4.50
2023-11-11T01:16:42.094Z,4.50
2023-11-11T01:19:20.794Z,4.40
2023-11-11T01:21:58.422Z,4.40
2023-11-11T01:24:38.582Z,4.40
2023-11-11T01:27:15.405Z,4.30
2023-11-11T01:29:49.544Z,4.30
2023-11-11T01:32:27.938Z,4.20
2023-11-11T01:35:04.951Z,4.20
2023-11-11T01:37:40.442Z,4.20
2023-11-11T01:40:22.855Z,4.20
2023-11-11T01:43:00.405Z,4.20
2023-11-11T01:45:38.202Z,4.10
2023-11-11T01:48:14.702Z,4.00
2023-11-11T01:50:53.153Z,4.00
2023-11-11T01:53:29.132Z,4.00
2023-11-11T01:56:10.585Z,4.00
2023-11-11T01:58:48.308Z,4.00
2023-11-11T02:01:25.622Z,3.90
2023-11-11T02:04:01.254Z,3.90
2023-11-11T02:06:37.901Z,3.90
2023-11-11T02:09:16.644Z,3.80
2023-11-11T02:11:53.042Z,3.80
2023-11-11T02:14:35.961Z,3.80
2023-11-11T02:17:11.445Z,3.80
2023-11-11T02:19:47.108Z,3.70
2023-11-11T02:22:24.376Z,3.70
2023-11-11T02:25:03.812Z,3.60
2023-11-11T02:27:39.446Z,3.50
2023-11-11T02:30:16.880Z,3.50
2023-11-11T02:32:52.623Z,3.40
2023-11-11T02:35:33.054Z,3.40
2023-11-11T02:38:09.321Z,3.40
2023-11-11T02:40:51.818Z,3.40
2023-11-11T02:43:23.656Z,3.30
2023-11-11T02:45:59.888Z,3.30
2023-11-11T02:48:35.536Z,3.20
2023-11-11T02:51:12.597Z,3.10
2023-11-11T02:53:48.223Z,3.10
2023-11-11T02:56:28.077Z,3.10
2023-11-11T02:59:02.336Z,3.10
2023-11-11T03:01:39.493Z,3.10
2023-11-11T03:04:18.161Z,3.10
2023-11-11T03:06:54.416Z,3.10
2023-11-11T03:09:33.667Z,3.10
2023-11-11T03:12:14.057Z,3.10
2023-11-11T03:14:51.847Z,3.10
2023-11-11T03:17:27.785Z,3.00
2023-11-11T03:20:06.488Z,3.00
2023-11-11T03:22:42.294Z,3.00
2023-11-11T03:25:19.886Z,3.00
2023-11-11T03:27:58.727Z,2.90
2023-11-11T03:30:35.296Z,2.90
2023-11-11T03:33:12.334Z,2.90
2023-11-11T03:35:52.509Z,2.80
2023-11-11T03:38:29.823Z,2.80
2023-11-11T03:41:06.255Z,2.70
2023-11-11T03:43:44.782Z,2.60
2023-11-11T03:46:22.089Z,2.70
2023-11-11T03:49:07.240Z,2.60
2023-11-11T03:51:44.837Z,2.60
2023-11-11T03:54:20.606Z,2.60
2023-11-11T03:56:56.282Z,2.60
2023-11-11T03:59:36.846Z,2.60
2023-11-11T04:02:12.853Z,2.60
2023-11-11T04:04:49.805Z,2.50
2023-11-11T04:07:27.229Z,2.50
2023-11-11T04:10:02.755Z,2.50
2023-11-11T04:12:40.603Z,2.50
2023-11-11T04:15:19.478Z,2.50
2023-11-11T04:17:59.388Z,2.50
2023-11-11T04:20:36.143Z,2.50
2023-11-11T04:23:11.446Z,2.40
2023-11-11T04:25:47.973Z,2.40
2023-11-11T04:28:21.912Z,2.30
2023-11-11T04:31:00.632Z,2.40
2023-11-11T04:33:36.756Z,2.40
2023-11-11T04:36:11.408Z,2.40
2023-11-11T04:38:47.207Z,2.30
2023-11-11T04:41:22.468Z,2.30
2023-11-11T04:43:58.096Z,2.30
2023-11-11T04:46:38.649Z,2.30
2023-11-11T04:49:25.958Z,2.30
2023-11-11T04:51:59.899Z,2.30
2023-11-11T04:54:35.714Z,2.30
2023-11-11T04:57:12.607Z,2.30
2023-11-11T04:59:48.505Z,2.20
2023-11-11T05:02:27.385Z,2.20
2023-11-11T05:05:04.533Z,2.20
2023-11-11T05:07:40.803Z,2.10
2023-11-11T05:10:21.157Z,2.00
2023-11-11T05:12:57.969Z,2.10
2023-11-11T05:15:36.246Z,2.00
2023-11-11T05:18:14.040Z,2.00
2023-11-11T05:20:47.355Z,1.90
2023-11-11T05:23:21.838Z,1.90
2023-11-11T05:25:58.601Z,1.80
2023-11-11T05:28:34.502Z,1.80
2023-11-11T05:31:11.210Z,1.80
2023-11-11T05:33:48.687Z,1.80
2023-11-11T05:36:25.402Z,1.80
2023-11-11T05:39:01.095Z,1.70
2023-11-11T05:41:39.563Z,1.70
2023-11-11T05:44:16.301Z,1.70
2023-11-11T05:46:50.639Z,1.70
2023-11-11T05:49:28.996Z,1.70
2023-11-11T05:52:04.282Z,1.70
2023-11-11T05:54:38.814Z,1.60
2023-11-11T05:57:16.741Z,1.60
2023-11-11T05:59:54.151Z,1.60
2023-11-11T06:02:29.443Z,1.60
2023-11-11T06:05:07.842Z,1.60
2023-11-11T06:07:42.359Z,1.60
2023-11-11T06:10:21.392Z,1.60
2023-11-11T06:12:59.232Z,1.60
2023-11-11T06:15:36.977Z,1.60
2023-11-11T06:18:13.458Z,1.60
2023-11-11T06:20:52.141Z,1.60
2023-11-11T06:26:04.554Z,1.60
2023-11-11T06:28:41.350Z,1.50
2023-11-11T06:31:16.551Z,1.60
2023-11-11T06:33:52.884Z,1.60
2023-11-11T06:36:31.491Z,1.50
2023-11-11T06:39:10.274Z,1.50
2023-11-11T06:41:47.989Z,1.50
2023-11-11T06:44:21.879Z,1.50
2023-11-11T06:46:57.080Z,1.50
2023-11-11T06:49:32.271Z,1.60
2023-11-11T06:52:09.958Z,1.60
2023-11-11T06:54:48.101Z,1.60
2023-11-11T06:57:24.255Z,1.60
2023-11-11T07:00:02.290Z,1.70
2023-11-11T07:02:40.115Z,1.70
2023-11-11T07:05:16.456Z,1.70
2023-11-11T07:07:55.724Z,1.70
2023-11-11T07:10:31.917Z,1.70
2023-11-11T07:13:10.640Z,1.80
2023-11-11T07:15:47.060Z,1.70
2023-11-11T07:18:21.242Z,1.80
2023-11-11T07:20:57.045Z,1.80
2023-11-11T07:23:37.974Z,1.80
2023-11-11T07:26:13.435Z,1.90
2023-11-11T07:28:50.309Z,1.90
2023-11-11T07:31:26.764Z,1.90
2023-11-11T07:34:02.315Z,1.90
2023-11-11T07:36:40.306Z,1.90
2023-11-11T07:39:18.131Z,2.00
2023-11-11T07:41:52.502Z,2.00
2023-11-11T07:44:28.660Z,2.10
2023-11-11T07:47:03.090Z,2.20
2023-11-11T07:49:37.672Z,2.20
2023-11-11T07:52:12.508Z,2.30
2023-11-11T07:54:50.139Z,2.30
2023-11-11T07:58:36.144Z,2.30
2023-11-11T08:00:25.838Z,2.40
2023-11-11T08:03:00.375Z,2.40
2023-11-11T08:05:35.154Z,2.40
2023-11-11T08:08:16.038Z,2.50
2023-11-11T08:10:56.415Z,2.50
2023-11-11T08:13:31.948Z,2.60
2023-11-11T08:16:09.773Z,2.70
2023-11-11T08:18:48.446Z,2.70
2023-11-11T08:21:30.877Z,2.80
2023-11-11T08:24:10.300Z,2.90
2023-11-11T08:26:47.271Z,2.90
2023-11-11T08:29:23.125Z,3.00
2023-11-11T08:31:58.757Z,3.10
2023-11-11T08:34:38.416Z,3.20
2023-11-11T08:37:22.658Z,3.20
2023-11-11T08:39:58.269Z,3.30
2023-11-11T08:42:40.906Z,3.40
2023-11-11T08:45:15.878Z,3.40
2023-11-11T08:47:50.850Z,3.50
2023-11-11T08:50:30.506Z,3.60
2023-11-11T08:53:07.659Z,3.60
2023-11-11T08:55:43.191Z,3.70
2023-11-11T08:58:21.056Z,3.70
2023-11-11T09:00:59.581Z,3.80
2023-11-11T09:03:51.593Z,3.90
2023-11-11T09:06:26.748Z,4.00
2023-11-11T09:09:04.409Z,4.00
2023-11-11T09:11:42.008Z,4.20
2023-11-11T09:14:16.024Z,4.20
2023-11-11T09:16:56.194Z,4.30
2023-11-11T09:19:32.678Z,4.40
2023-11-11T09:22:08.193Z,4.40
2023-11-11T09:24:43.056Z,4.50
2023-11-11T09:27:18.176Z,4.60
2023-11-11T09:29:52.663Z,4.60
2023-11-11T09:32:31.310Z,4.80
2023-11-11T09:35:06.035Z,4.80
2023-11-11T09:37:44.811Z,4.90
2023-11-11T09:40:20.718Z,5.00
2023-11-11T09:42:55.886Z,5.10
2023-11-11T09:45:31.975Z,5.20
2023-11-11T09:48:09.962Z,5.30
2023-11-11T09:50:57.743Z,5.30
2023-11-11T09:53:35.380Z,5.40
2023-11-11T09:57:03.092Z,5.50
2023-11-11T09:59:10.869Z,5.60
2023-11-11T10:01:45.735Z,5.70
2023-11-11T10:04:26.859Z,5.80
2023-11-11T10:07:02.049Z,5.90
2023-11-11T10:09:48.388Z,5.90
2023-11-11T10:12:23.938Z,6.00
2023-11-11T10:15:03.085Z,6.10
2023-11-11T10:17:44.294Z,6.20
2023-11-11T10:20:29.030Z,6.30
2023-11-11T10:25:59.932Z,6.50
2023-11-11T10:28:39.051Z,6.60
2023-11-11T10:31:22.522Z,6.80
2023-11-11T10:33:59.171Z,6.80
2023-11-11T10:36:42.512Z,7.00
2023-11-11T10:39:23.507Z,7.10
2023-11-11T10:41:58.600Z,7.10
2023-11-11T10:44:34.304Z,7.20
2023-11-11T10:47:09.333Z,7.30
2023-11-11T10:49:43.717Z,7.40
2023-11-11T10:52:21.579Z,7.40
2023-11-11T10:54:58.159Z,7.50
2023-11-11T10:57:32.559Z,7.60
2023-11-11T11:00:18.463Z,7.60
2023-11-11T11:02:57.045Z,7.70
2023-11-11T11:05:35.982Z,7.70
2023-11-11T11:08:16.637Z,7.70
2023-11-11T11:10:56.347Z,7.80
2023-11-11T11:13:31.977Z,7.90
2023-11-11T11:16:07.670Z,7.90
2023-11-11T11:18:45.151Z,7.90
2023-11-11T11:21:22.448Z,7.90
2023-11-11T11:24:01.687Z,8.00
2023-11-11T11:26:39.807Z,8.10
2023-11-11T11:29:16.440Z,8.10
2023-11-11T11:32:11.412Z,8.10
2023-11-11T11:34:48.452Z,8.20
2023-11-11T11:37:24.660Z,8.30
2023-11-11T11:40:08.522Z,8.30
2023-11-11T11:42:44.214Z,8.30
2023-11-11T11:45:18.962Z,8.40
2023-11-11T11:47:54.271Z,8.40
2023-11-11T11:50:30.999Z,8.40
2023-11-11T11:53:06.033Z,8.50
2023-11-11T11:55:45.521Z,8.50
2023-11-11T11:58:21.566Z,8.50
2023-11-11T12:00:55.881Z,8.50
2023-11-11T12:03:30.725Z,8.50
2023-11-11T12:06:06.005Z,8.50
2023-11-11T12:08:40.939Z,8.60
2023-11-11T12:11:18.655Z,8.60
2023-11-11T12:13:56.400Z,8.60
2023-11-11T12:16:30.637Z,8.60
2023-11-11T12:19:14.433Z,8.60
2023-11-11T12:21:52.088Z,8.60
2023-11-11T12:24:27.819Z,8.60
2023-11-11T12:27:06.250Z,8.70
2023-11-11T12:29:37.694Z,8.80
2023-11-11T12:32:17.626Z,8.80
2023-11-11T12:34:53.180Z,8.90
2023-11-11T12:37:27.613Z,9.10
2023-11-11T12:40:03.074Z,9.10
2023-11-11T12:42:41.674Z,9.40
2023-11-11T12:45:20.869Z,9.50
2023-11-11T12:47:58.925Z,9.60
2023-11-11T12:50:36.534Z,9.60
2023-11-11T12:53:12.536Z,9.50
2023-11-11T12:55:47.650Z,9.50
2023-11-11T12:58:30.000Z,9.50
2023-11-11T13:01:06.434Z,9.40
2023-11-11T13:03:41.417Z,9.40
2023-11-11T13:06:17.475Z,9.30
2023-11-11T13:08:52.209Z,9.30
2023-11-11T13:11:26.352Z,9.20
2023-11-11T13:14:03.742Z,9.20
2023-11-11T13:16:38.543Z,9.20
2023-11-11T13:19:14.006Z,9.10
2023-11-11T13:21:49.226Z,9.10
2023-11-11T13:24:24.806Z,9.10
2023-11-11T13:26:59.974Z,9.10
2023-11-11T13:29:37.445Z,9.10
2023-11-11T13:32:13.257Z,9.00
2023-11-11T13:34:47.896Z,9.00
2023-11-11T13:37:27.495Z,9.00
2023-11-11T13:40:20.761Z,9.00
2023-11-11T13:42:55.335Z,9.00
2023-11-11T13:45:32.814Z,9.00
2023-11-11T13:48:08.803Z,9.00
2023-11-11T13:50:42.879Z,8.90
2023-11-11T13:53:17.767Z,8.90
2023-11-11T13:55:53.145Z,9.00
2023-11-11T13:58:28.517Z,9.00
2023-11-11T14:01:06.487Z,9.00
2023-11-11T14:03:41.407Z,9.00
2023-11-11T14:06:18.384Z,9.00
2023-11-11T14:08:52.739Z,8.90
2023-11-11T14:11:29.005Z,8.90
2023-11-11T14:14:03.532Z,8.90
2023-11-11T14:16:41.938Z,8.90
2023-11-11T14:19:16.753Z,8.90
2023-11-11T14:21:51.987Z,8.90
2023-11-11T14:24:26.898Z,8.80
2023-11-11T14:27:03.832Z,8.80
2023-11-11T14:29:41.325Z,8.80
2023-11-11T14:32:20.627Z,8.80
2023-11-11T14:34:55.927Z,8.70
2023-11-11T14:37:30.687Z,8.70
2023-11-11T14:40:06.867Z,8.70
2023-11-11T14:42:41.698Z,8.60
2023-11-11T14:45:17.217Z,8.60
2023-11-11T14:47:55.141Z,8.50
2023-11-11T14:50:30.070Z,8.50
2023-11-11T14:53:04.919Z,8.40
2023-11-11T14:55:39.648Z,8.30
2023-11-11T14:58:15.155Z,8.30
2023-11-11T15:00:49.982Z,8.20
2023-11-11T15:03:27.566Z,8.10
2023-11-11T15:06:02.829Z,8.10
2023-11-11T15:08:38.154Z,8.00
2023-11-11T15:11:13.260Z,7.90
2023-11-11T15:13:47.751Z,7.80
2023-11-11T15:16:23.531Z,7.70
2023-11-11T15:19:04.242Z,7.70
2023-11-11T15:21:39.172Z,7.60
2023-11-11T15:24:14.360Z,7.60
2023-11-11T15:26:49.372Z,7.50
2023-11-11T15:29:24.485Z,7.50
2023-11-11T15:32:00.691Z,7.40
2023-11-11T15:34:39.669Z,7.40
2023-11-11T15:37:15.676Z,7.30
2023-11-11T15:39:51.844Z,7.20
2023-11-11T15:42:27.405Z,7.10
2023-11-11T15:45:03.065Z,7.10
2023-11-11T15:47:37.621Z,7.10
2023-11-11T15:50:15.817Z,7.10
2023-11-11T15:52:50.858Z,7.10
2023-11-11T15:55:27.244Z,7.00
2023-11-11T15:58:01.444Z,7.00
2023-11-11T16:00:38.106Z,7.00
2023-11-11T16:03:13.019Z,6.90
2023-11-11T16:05:52.196Z,6.90
2023-11-11T16:08:27.332Z,6.80
2023-11-11T16:11:01.528Z,6.80
2023-11-11T16:13:36.416Z,6.70
2023-11-11T16:16:11.872Z,6.60
2023-11-11T16:18:46.898Z,6.50
2023-11-11T16:21:27.511Z,6.50
2023-11-11T16:24:16.401Z,6.40
2023-11-11T16:26:58.650Z,6.40
2023-11-11T16:29:33.970Z,6.40
2023-11-11T16:32:09.676Z,6.30
2023-11-11T16:34:45.069Z,6.20
2023-11-11T16:37:22.597Z,6.20
2023-11-11T16:39:57.957Z,6.10
2023-11-11T16:42:32.809Z,6.10
2023-11-11T16:45:09.914Z,6.00
2023-11-11T16:47:44.448Z,6.00
2023-11-11T16:50:19.307Z,5.90
2023-11-11T16:52:56.094Z,5.90
2023-11-11T16:55:30.444Z,5.80
2023-11-11T16:58:05.614Z,5.80
2023-11-11T17:00:42.034Z,5.80
2023-11-11T17:03:16.561Z,5.70
2023-11-11T17:05:51.465Z,5.70
2023-11-11T17:08:28.549Z,5.70
2023-11-11T17:11:04.818Z,5.70
2023-11-11T17:13:41.282Z,5.70
2023-11-11T17:16:15.525Z,5.70
2023-11-11T17:18:50.423Z,5.70
2023-11-11T17:21:24.899Z,5.80
2023-11-11T17:24:02.671Z,5.80
2023-11-11T17:26:38.592Z,5.80
2023-11-11T17:29:12.483Z,5.80
2023-11-11T17:31:47.246Z,5.80
2023-11-11T17:34:21.735Z,5.90
2023-11-11T17:36:56.469Z,5.90
2023-11-11T17:39:33.091Z,5.90
2023-11-11T17:42:08.537Z,5.90
2023-11-11T17:44:44.239Z,5.90
2023-11-11T17:47:19.193Z,5.90
2023-11-11T17:49:53.510Z,5.90
2023-11-11T17:52:27.762Z,5.90
2023-11-11T17:55:06.696Z,5.80
2023-11-11T17:57:41.618Z,5.80
2023-11-11T18:00:19.350Z,5.80
2023-11-11T18:02:53.929Z,5.80
2023-11-11T18:05:28.541Z,5.90
2023-11-11T18:08:03.810Z,5.80
2023-11-11T18:10:41.214Z,5.80
2023-11-11T18:13:15.450Z,5.90
2023-11-11T18:15:49.456Z,5.90
2023-11-11T18:18:23.478Z,5.90
2023-11-11T18:20:59.381Z,5.90
2023-11-11T18:23:33.519Z,5.80
2023-11-11T18:26:11.432Z,5.90
2023-11-11T18:28:47.679Z,5.90
2023-11-11T18:31:22.792Z,5.90
2023-11-11T18:33:57.524Z,5.90
2023-11-11T18:36:34.278Z,5.90
2023-11-11T18:39:08.666Z,5.90
2023-11-11T18:41:46.062Z,5.90
2023-11-11T18:44:20.842Z,5.80
2023-11-11T18:46:55.775Z,5.80
2023-11-11T18:49:30.668Z,5.80
2023-11-11T18:52:05.482Z,5.70
2023-11-11T18:54:40.409Z,5.70
2023-11-11T18:57:17.298Z,5.70
2023-11-11T18:59:52.170Z,5.70
2023-11-11T19:02:26.830Z,5.70
2023-11-11T19:05:01.824Z,5.70
2023-11-11T19:07:36.459Z,5.70
2023-11-11T19:10:11.580Z,5.70
2023-11-11T19:12:49.338Z,5.70
2023-11-11T19:15:24.802Z,5.70
2023-11-11T19:17:59.518Z,5.70
2023-11-11T19:20:34.630Z,5.80
2023-11-11T19:23:09.592Z,5.80
2023-11-11T19:25:44.498Z,5.80
2023-11-11T19:28:21.303Z,5.80
2023-11-11T19:30:55.602Z,5.80
2023-11-11T19:33:30.666Z,5.80
2023-11-11T19:36:05.637Z,5.80
2023-11-11T19:38:40.560Z,5.90
2023-11-11T19:41:16.912Z,5.80
2023-11-11T19:43:54.413Z,5.90
2023-11-11T19:46:28.648Z,5.90
2023-11-11T19:49:06.378Z,5.90
2023-11-11T19:51:42.032Z,5.90
2023-11-11T19:54:17.623Z,5.90
2023-11-11T19:56:53.572Z,5.90
2023-11-11T19:59:33.858Z,5.90
2023-11-11T20:02:10.546Z,5.90
2023-11-11T20:04:48.068Z,5.90
2023-11-11T20:07:22.824Z,5.90
2023-11-11T20:09:57.590Z,5.90
2023-11-11T20:12:32.607Z,5.90
2023-11-11T20:15:13.305Z,5.90
2023-11-11T20:17:47.538Z,6.00
2023-11-11T20:20:22.619Z,6.00
2023-11-11T20:22:58.390Z,6.00
2023-11-11T20:25:33.134Z,6.00
2023-11-11T20:28:07.657Z,6.00
2023-11-11T20:30:45.482Z,6.10
2023-11-11T20:33:20.821Z,6.10
2023-11-11T20:35:56.164Z,6.20
2023-11-11T20:38:33.370Z,6.20
2023-11-11T20:41:07.881Z,6.20
2023-11-11T20:43:42.965Z,6.30
2023-11-11T20:46:28.211Z,6.30
2023-11-11T20:49:03.720Z,6.30
2023-11-11T20:51:38.594Z,6.30
2023-11-11T20:54:14.337Z,6.40
2023-11-11T20:56:48.690Z,6.40
2023-11-11T20:59:24.738Z,6.40
2023-11-11T21:02:01.758Z,6.40
2023-11-11T21:04:37.277Z,6.40
2023-11-11T21:07:11.960Z,6.40
2023-11-11T21:09:46.596Z,6.40
2023-11-11T21:12:22.317Z,6.40
2023-11-11T21:14:56.727Z,6.40
2023-11-11T21:17:34.419Z,6.40
2023-11-11T21:20:11.497Z,6.40
2023-11-11T21:22:47.136Z,6.40
2023-11-11T21:25:24.401Z,6.40
2023-11-11T21:28:00.205Z,6.40
2023-11-11T21:30:34.678Z,6.50
2023-11-11T21:33:08.837Z,6.50
2023-11-11T21:35:46.671Z,6.40
2023-11-11T21:38:25.191Z,6.50
2023-11-11T21:40:59.518Z,6.40
2023-11-11T21:43:34.673Z,6.50
2023-11-11T21:46:09.730Z,6.40
2023-11-11T21:48:44.685Z,6.40
2023-11-11T21:51:22.205Z,6.40
2023-11-11T21:53:56.509Z,6.40
2023-11-11T21:56:30.670Z,6.30
2023-11-11T21:59:05.568Z,6.40
2023-11-11T22:01:43.748Z,6.30
2023-11-11T22:04:18.615Z,6.30
2023-11-11T22:06:56.179Z,6.30
2023-11-11T22:09:33.093Z,6.30
2023-11-11T22:12:09.844Z,6.30
2023-11-11T22:14:44.383Z,6.30
2023-11-11T22:17:18.615Z,6.30
2023-11-11T22:19:54.451Z,6.30
2023-11-11T22:22:33.701Z,6.30
2023-11-11T22:25:10.715Z,6.30
2023-11-11T22:27:46.215Z,6.30
2023-11-11T22:30:20.926Z,6.30
2023-11-11T22:32:55.776Z,6.30
2023-11-11T22:35:31.589Z,6.30
2023-11-11T22:38:10.980Z,6.30
2023-11-11T22:40:47.466Z,6.30
2023-11-11T22:43:23.218Z,6.30
2023-11-11T22:45:58.079Z,6.30
2023-11-11T22:48:32.704Z,6.30
2023-11-11T22:51:09.762Z,6.40
2023-11-11T22:53:48.136Z,6.40
2023-11-11T22:56:22.874Z,6.40
2023-11-11T22:58:58.958Z,6.40
2023-11-11T23:01:36.222Z,6.40
2023-11-11T23:04:11.839Z,6.30
2023-11-11T23:06:46.611Z,6.30
2023-11-11T23:09:22.655Z,6.40
2023-11-11T23:11:58.307Z,6.40
2023-11-11T23:14:32.861Z,6.40
2023-11-11T23:17:10.013Z,6.40
2023-11-11T23:19:45.054Z,6.40
2023-11-11T23:22:20.231Z,6.40
2023-11-11T23:24:57.258Z,6.40
2023-11-11T23:27:31.807Z,6.40
2023-11-11T23:30:07.644Z,6.40
2023-11-11T23:32:42.950Z,6.40
2023-11-11T23:35:18.465Z,6.40
2023-11-11T23:37:53.686Z,6.40
2023-11-11T23:40:31.622Z,6.40
2023-11-11T23:43:06.848Z,6.40
2023-11-11T23:45:41.633Z,6.40
2023-11-11T23:48:20.540Z,6.40
2023-11-11T23:50:56.769Z,6.40
2023-11-11T23:53:31.295Z,6.40
2023-11-11T23:56:09.380Z,6.40
2023-11-11T23:58:43.871Z,6.40
